Latest Weather Observations for Swan Island

IDT60801

Issued at 3:11 pm EST Monday 23 September 2019 (issued every 10 minutes, with the page automatically refreshed every 10 minutes)

About weather observations | Map of weather stations | Latest weather observations for TAS | Other Formats
Station Details ID: 092123 Name: SWAN ISLAND Lat: -40.73 Lon: 148.12 Height: 15.0 m
Data from the previous 72 hours. | See also: Recent months at Swan Island
Date/Time
EST
Temp
°C
App
Temp
°C
Dew
Point
°C
Rel
Hum
%
Delta-T
°C
Wind Press
QNH
hPa
Press
MSL
hPa
Rain since
9am
mm
Dir  Spd
km/h
Gust
km/h
Spd
kts
Gust
kts
23/03:00pm 12.5 7.3 7.4 71 2.5 WNW 24 37 13 20 1018.5 1018.5 0.0
23/02:30pm 12.8 7.7 7.7 71 2.5 WNW 24 37 13 20 1018.7 1018.7 0.0
23/02:00pm 12.8 7.7 7.7 71 2.5 WNW 24 37 13 20 1018.8 1018.8 0.0
23/01:30pm 13.2 8.2 7.9 70 2.6 WNW 24 35 13 19 1018.8 1018.8 0.0
23/01:00pm 13.0 8.2 7.2 68 2.8 WNW 22 30 12 16 1018.8 1018.8 0.0
23/12:30pm 12.9 8.8 8.0 72 2.4 WNW 19 26 10 14 1018.8 1018.8 0.0
23/12:00pm 12.7 9.4 8.0 73 2.3 WNW 15 20 8 11 1019.0 1019.0 0.0
23/11:30am 12.4 9.6 8.5 77 1.9 NW 13 19 7 10 1019.1 1019.1 0.0
23/11:00am 12.4 9.3 8.7 78 1.8 NW 15 19 8 10 1019.2 1019.2 0.0
23/10:30am 12.3 9.6 9.1 81 1.6 NW 13 17 7 9 1019.5 1019.5 0.0
23/10:00am 11.2 8.8 8.6 84 1.3 NW 11 17 6 9 1019.7 1019.7 0.0
23/09:30am 10.8 9.2 8.7 87 1.0 WNW 7 11 4 6 1019.5 1019.5 0.0
23/09:00am 9.8 6.8 7.7 87 1.0 WNW 13 19 7 10 1019.5 1019.5 0.8
23/08:30am 9.9 6.5 7.5 85 1.1 NW 15 20 8 11 1019.6 1019.6 0.6
23/08:00am 9.6 6.1 7.0 84 1.2 NW 15 19 8 10 1019.3 1019.3 0.6
23/07:30am 9.6 6.1 7.4 86 1.0 WNW 15 19 8 10 1019.1 1019.1 0.6
23/07:00am 9.3 6.6 7.4 88 0.9 WNW 11 17 6 9 1018.9 1018.9 0.6
23/06:30am 8.8 6.0 7.1 89 0.8 WNW 11 17 6 9 1018.8 1018.8 0.6
23/06:00am 8.6 5.0 6.9 89 0.8 WNW 15 20 8 11 1019.0 1019.0 0.6
23/05:30am 8.8 5.6 6.9 88 0.9 W 13 22 7 12 1019.1 1019.1 0.6
23/05:00am 8.2 6.1 5.7 84 1.1 WSW 6 9 3 5 1019.2 1019.2 0.0
23/04:30am 8.1 5.7 5.4 83 1.2 SW 7 9 4 5 1019.1 1019.1 0.0
23/04:00am 8.1 5.6 5.0 81 1.4 WSW 7 9 4 5 1019.1 1019.1 0.0
23/03:30am 8.2 5.7 4.8 79 1.5 WSW 7 11 4 6 1019.0 1019.0 0.0
23/03:00am 8.5 5.6 4.9 78 1.6 WSW 9 13 5 7 1019.1 1019.1 0.0
23/02:30am 9.1 6.3 5.1 76 1.8 WSW 9 17 5 9 1019.3 1019.3 0.0
23/02:00am 10.0 5.2 5.8 75 1.9 W 20 26 11 14 1019.6 1019.6 0.0
23/01:30am 10.0 4.9 5.8 75 1.9 W 22 32 12 17 1019.8 1019.8 0.0
23/01:00am 10.1 5.0 6.1 76 1.8 W 22 35 12 19 1020.0 1020.0 0.0
23/12:30am 10.2 5.8 6.4 77 1.8 WNW 19 28 10 15 1020.1 1020.1 0.0
23/12:00am 10.3 5.7 6.5 77 1.8 WNW 20 32 11 17 1020.3 1020.3 0.0
 
Date/Time
EST
Temp
°C
App
Temp
°C
Dew
Point
°C
Rel
Hum
%
Delta-T
°C
Wind Press
QNH
hPa
Press
MSL
hPa
Rain since
9am
mm
Dir  Spd
km/h
Gust
km/h
Spd
kts
Gust
kts
22/11:30pm 10.1 5.0 6.1 76 1.9 W 22 33 12 18 1020.3 1020.3 0.0
22/11:00pm 10.4 5.0 6.4 76 1.9 WNW 24 32 13 17 1020.3 1020.3 0.0
22/10:30pm 10.2 5.5 6.2 76 1.9 W 20 32 11 17 1020.6 1020.6 0.0
22/10:00pm 10.6 4.5 6.6 76 1.9 WNW 28 37 15 20 1020.6 1020.6 0.0
22/09:30pm 10.5 4.4 6.5 76 1.9 WNW 28 39 15 21 1020.6 1020.6 0.0
22/09:00pm 10.5 4.7 6.3 75 2.0 WNW 26 39 14 21 1020.7 1020.7 0.0
22/08:30pm 10.5 3.6 6.3 75 2.0 WNW 32 43 17 23 1020.6 1020.6 0.0
22/08:00pm 10.6 3.5 6.6 76 1.9 WNW 33 46 18 25 1020.5 1020.5 0.0
22/07:30pm 10.5 3.4 6.3 75 2.0 WNW 33 46 18 25 1020.3 1020.3 0.0
22/07:00pm 10.6 4.0 6.0 73 2.1 WNW 30 39 16 21 1019.9 1019.9 0.0
22/06:30pm 10.3 3.6 5.7 73 2.1 WNW 30 44 16 24 1019.6 1019.6 0.0
22/06:00pm 10.4 2.8 5.6 72 2.2 WNW 35 46 19 25 1019.3 1019.3 0.0
22/05:30pm 11.1 4.1 5.8 70 2.5 WNW 32 43 17 23 1019.2 1019.2 0.0
22/05:00pm 10.9 3.6 5.4 69 2.5 WNW 33 46 18 25 1018.9 1018.9 0.0
22/04:30pm 11.4 4.3 5.3 66 2.8 WNW 32 43 17 23 1018.8 1018.8 0.0
22/04:00pm 11.9 4.9 5.8 66 2.8 WNW 32 43 17 23 1018.7 1018.7 0.0
22/03:41pm 12.1 5.8 5.7 65 3.0 W 28 46 15 25 1018.6 1018.6 0.0
22/03:30pm 11.9 5.1 5.3 64 3.0 W 30 41 16 22 1018.6 1018.6 0.0
22/03:00pm 12.1 5.0 5.3 63 3.1 WNW 32 46 17 25 1018.5 1018.5 0.0
22/02:43pm 12.3 5.8 4.8 60 3.4 WNW 28 48 15 26 1018.4 1018.4 0.0
22/02:30pm 12.7 6.9 6.1 64 3.1 W 26 39 14 21 1018.4 1018.4 0.0
22/02:18pm 12.9 6.6 5.8 62 3.3 W 28 46 15 25 1018.5 1018.5 0.0
22/02:00pm 12.6 5.9 5.5 62 3.3 WNW 30 46 16 25 1018.5 1018.5 0.0
22/01:37pm 12.7 6.0 5.4 61 3.4 W 30 50 16 27 1018.7 1018.7 0.0
22/01:30pm 12.5 5.3 5.2 61 3.4 WNW 32 44 17 24 1018.7 1018.7 0.0
22/01:00pm 12.6 6.1 4.8 59 3.6 W 28 43 15 23 1018.7 1018.7 0.0
22/12:58pm 13.1 6.7 5.3 59 3.6 W 28 48 15 26 1018.7 1018.7 0.0
22/12:30pm 12.6 5.4 4.8 59 3.6 W 32 44 17 24 1018.6 1018.6 0.0
22/12:06pm 12.6 5.8 5.1 60 3.5 W 30 50 16 27 1018.7 1018.7 0.0
22/12:00pm 13.1 6.0 5.5 60 3.5 W 32 43 17 23 1018.7 1018.7 0.0
22/11:30am 12.7 5.5 4.9 59 3.6 W 32 43 17 23 1018.7 1018.7 0.0
22/11:00am 12.8 6.0 5.2 60 3.5 W 30 46 16 25 1018.8 1018.8 0.0
22/10:44am 12.4 5.1 4.6 59 3.6 W 32 52 17 28 1018.7 1018.7 0.0
22/10:30am 12.3 5.2 5.5 63 3.2 W 32 48 17 26 1018.7 1018.7 0.0
22/10:00am 11.8 4.6 4.8 62 3.2 W 32 44 17 24 1018.6 1018.6 0.0
22/09:30am 11.8 5.9 5.9 67 2.8 W 26 39 14 21 1018.6 1018.6 0.0
22/09:00am 11.4 5.2 6.3 71 2.4 W 28 44 15 24 1018.5 1018.5 5.4
22/08:30am 10.0 3.2 5.2 72 2.2 W 30 50 16 27 1018.2 1018.2 5.4
22/08:06am 11.0 3.9 5.3 68 2.6 W 32 50 17 27 1017.8 1017.8 5.4
22/08:00am 10.9 2.8 5.2 68 2.6 W 37 54 20 29 1017.7 1017.7 5.4
22/07:55am 10.4 3.0 4.8 68 2.5 W 33 54 18 29 1017.7 1017.7 5.4
22/07:30am 9.9 3.1 4.9 71 2.2 W 30 44 16 24 1017.4 1017.4 5.4
22/07:00am 10.6 3.5 6.2 74 2.0 W 33 44 18 24 1016.9 1016.9 5.4
22/06:30am 10.1 3.5 5.9 75 1.9 W 30 44 16 24 1016.4 1016.4 5.4
22/06:13am 9.9 3.2 5.7 75 1.9 W 30 50 16 27 1016.1 1016.1 5.4
22/06:00am 9.8 2.8 5.8 76 1.8 W 32 44 17 24 1015.9 1015.9 5.4
22/05:38am 9.8 3.6 6.2 78 1.7 W 28 46 15 25 1015.5 1015.5 5.4
22/05:30am 10.2 4.1 6.7 79 1.6 W 28 43 15 23 1015.3 1015.3 5.4
22/05:10am 10.0 3.4 6.2 77 1.8 W 30 48 16 26 1015.2 1015.2 5.4
22/05:00am 9.8 2.2 5.8 76 1.8 W 35 50 19 27 1015.0 1015.0 5.4
22/04:30am 9.8 2.6 6.0 77 1.8 W 33 46 18 25 1014.7 1014.7 5.4
22/04:09am 9.9 3.0 6.3 78 1.7 W 32 50 17 27 1014.6 1014.6 5.4
22/04:00am 9.8 2.7 6.3 79 1.6 W 33 52 18 28 1014.5 1014.5 5.4
22/03:58am 9.9 3.0 6.4 79 1.6 W 32 50 17 27 1014.4 1014.4 5.4
22/03:30am 10.1 3.7 6.8 80 1.6 W 30 44 16 24 1014.3 1014.3 5.4
22/03:09am 10.1 3.1 6.8 80 1.6 WNW 33 52 18 28 1014.2 1014.2 5.4
22/03:00am 10.1 3.3 6.8 80 1.6 W 32 48 17 26 1014.1 1014.1 5.4
22/02:30am 10.1 3.7 7.0 81 1.5 W 30 50 16 27 1013.9 1013.9 5.4
22/02:04am 10.1 2.8 7.2 82 1.4 W 35 54 19 29 1013.3 1013.3 5.4
22/02:00am 10.0 2.3 7.1 82 1.4 W 37 54 20 29 1013.2 1013.2 5.4
22/01:30am 10.0 3.7 7.4 84 1.2 W 30 50 16 27 1013.1 1013.1 5.4
22/01:27am 9.9 3.6 7.3 84 1.2 W 30 50 16 27 1013.0 1013.0 5.4
22/01:00am 10.2 2.9 7.4 83 1.3 WNW 35 50 19 27 1012.9 1012.9 5.4
22/12:38am 10.4 3.6 7.6 83 1.3 WNW 33 52 18 28 1013.1 1013.1 5.4
22/12:30am 10.5 2.6 7.7 83 1.3 WNW 39 50 21 27 1013.1 1013.1 5.4
22/12:00am 10.5 2.9 7.7 83 1.3 WNW 37 52 20 28 1012.7 1012.7 5.4
 
Date/Time
EST
Temp
°C
App
Temp
°C
Dew
Point
°C
Rel
Hum
%
Delta-T
°C
Wind Press
QNH
hPa
Press
MSL
hPa
Rain since
9am
mm
Dir  Spd
km/h
Gust
km/h
Spd
kts
Gust
kts
21/11:30pm 10.6 3.4 7.8 83 1.4 WNW 35 54 19 29 1012.4 1012.4 5.4
21/11:00pm 10.5 2.9 7.6 82 1.4 WNW 37 54 20 29 1012.0 1012.0 5.4
21/10:30pm 10.6 3.1 7.8 83 1.4 WNW 37 56 20 30 1011.8 1011.8 5.4
21/10:00pm 10.7 2.9 8.3 85 1.2 WNW 39 52 21 28 1011.4 1011.4 5.4
21/09:34pm 10.8 3.1 8.6 86 1.1 WNW 39 57 21 31 1011.2 1011.2 5.4
21/09:30pm 11.0 3.4 8.9 87 1.0 WNW 39 52 21 28 1011.2 1011.2 5.4
21/09:01pm 11.0 4.1 8.9 87 1.0 WNW 35 54 19 29 1010.7 1010.8 5.4
21/09:00pm 11.0 4.1 8.9 87 1.0 WNW 35 50 19 27 1010.7 1010.8 5.4
21/08:30pm 11.1 3.9 9.0 87 1.0 WNW 37 50 20 27 1010.2 1010.3 5.4
21/08:00pm 11.2 5.0 9.5 89 0.9 WNW 32 46 17 25 1010.1 1010.2 5.4
21/07:30pm 11.6 4.6 10.0 90 0.8 WNW 37 52 20 28 1009.5 1009.6 5.4
21/07:00pm 11.9 5.0 10.3 90 0.8 WNW 37 48 20 26 1008.7 1008.8 5.4
21/06:30pm 12.1 5.3 10.5 90 0.8 WNW 37 50 20 27 1008.2 1008.3 5.4
21/06:00pm 12.6 6.0 11.2 91 0.7 WNW 37 50 20 27 1007.7 1007.7 5.4
21/05:30pm 12.8 6.2 11.5 92 0.7 NW 37 50 20 27 1007.4 1007.4 5.4
21/05:00pm 12.6 6.9 11.7 94 0.5 NW 33 41 18 22 1007.1 1007.1 5.4
21/04:30pm 12.3 6.0 11.2 93 0.6 NW 35 46 19 25 1006.9 1006.9 5.4
21/04:12pm 12.5 6.2 11.2 92 0.7 NW 35 56 19 30 1007.5 1007.5 3.8
21/04:00pm 12.9 7.1 11.5 91 0.7 NW 33 46 18 25 1007.5 1007.5 3.0
21/03:58pm 12.9 6.7 11.5 91 0.7 NW 35 56 19 30 1007.4 1007.4 3.0
21/03:44pm 13.4 5.7 11.6 89 1.0 NW 43 63 23 34 1007.2 1007.2 2.8
21/03:32pm 14.1 3.9 12.0 87 1.1 NW 57 76 31 41 1006.3 1006.3 2.2
21/03:30pm 14.2 4.0 12.1 87 1.1 NW 57 72 31 39 1006.2 1006.2 2.2
21/03:28pm 14.4 4.8 12.1 86 1.2 NW 54 72 29 39 1006.0 1006.0 2.2
21/03:18pm 15.0 9.8 12.7 86 1.3 NNW 32 50 17 27 1005.4 1005.4 1.4
21/03:00pm 15.2 10.4 12.9 86 1.3 N 30 33 16 18 1004.2 1004.2 1.0
21/02:30pm 14.4 11.4 12.4 88 1.1 N 20 28 11 15 1004.5 1004.5 0.4
21/02:00pm 14.8 7.6 11.8 82 1.6 N 41 54 22 29 1005.4 1005.4 0.4
21/01:41pm 15.2 9.5 11.8 80 1.8 NNW 33 39 18 21 1006.3 1006.3 0.0
21/01:30pm 15.4 8.5 11.6 78 2.0 NW 39 50 21 27 1006.4 1006.4 0.0
21/01:18pm 15.9 8.3 11.7 76 2.3 NNW 43 54 23 29 1005.9 1005.9 0.0
21/01:00pm 16.9 8.3 13.0 78 2.2 N 50 61 27 33 1005.7 1005.7 0.0
21/12:30pm 16.4 10.5 13.5 83 1.6 N 37 44 20 24 1005.4 1005.4 0.0
21/12:00pm 15.4 9.7 12.9 85 1.4 N 35 43 19 23 1005.9 1005.9 0.0
21/11:30am 15.8 10.5 13.1 84 1.5 NNE 33 46 18 25 1005.9 1005.9 0.0
21/11:00am 16.4 8.3 13.3 82 1.7 N 48 63 26 34 1006.3 1006.3 0.0
21/10:30am 16.9 10.3 13.8 82 1.8 N 41 52 22 28 1006.8 1006.8 0.0
21/10:00am 16.5 10.2 13.4 82 1.7 NNE 39 52 21 28 1006.5 1006.5 0.0
21/09:30am 16.5 8.1 13.4 82 1.7 N 50 65 27 35 1006.9 1006.9 0.0
21/09:08am 16.2 10.2 13.3 83 1.6 NNE 37 57 20 31 1007.8 1007.8 0.0
21/09:00am 16.2 9.9 13.5 84 1.5 N 39 52 21 28 1007.6 1007.6 0.0
21/08:45am 16.0 8.7 13.3 84 1.5 N 44 63 24 34 1007.6 1007.6 0.0
21/08:30am 15.9 7.5 13.4 85 1.4 N 50 61 27 33 1007.7 1007.7 0.0
21/08:00am 15.8 7.4 13.6 87 1.2 N 50 59 27 32 1007.7 1007.7 0.0
21/07:30am 15.6 8.0 13.6 88 1.1 N 46 59 25 32 1008.0 1008.0 0.0
21/07:00am 15.1 8.4 13.5 90 0.9 N 41 56 22 30 1008.3 1008.4 0.0
21/06:30am 14.9 7.8 13.4 91 0.8 N 43 57 23 31 1008.7 1008.8 0.0
21/06:00am 14.9 7.9 13.8 93 0.6 N 43 54 23 29 1008.9 1009.0 0.0
21/05:30am 14.5 9.3 13.5 94 0.6 N 33 43 18 23 1009.5 1009.6 0.0
21/05:00am 14.0 11.2 13.2 95 0.4 NNE 20 30 11 16 1010.3 1010.4 0.0
21/04:30am 14.0 11.2 13.2 95 0.4 NNE 20 32 11 17 1011.0 1011.0 0.0
21/04:00am 14.0 9.7 13.2 95 0.4 N 28 33 15 18 1011.2 1011.2 0.0
21/03:30am 13.8 9.4 13.0 95 0.4 NNE 28 37 15 20 1011.4 1011.4 0.0
21/03:00am 13.8 9.4 13.0 95 0.4 NE 28 35 15 19 1011.6 1011.6 0.0
21/02:30am 13.9 9.2 13.1 95 0.4 NNE 30 35 16 19 1011.9 1011.9 0.0
21/02:00am 14.2 10.3 13.4 95 0.4 NNE 26 33 14 18 1012.7 1012.7 0.0
21/01:30am 14.2 12.0 13.4 95 0.4 N 17 28 9 15 1013.2 1013.2 0.0
21/01:00am 14.3 14.6 13.5 95 0.4 NE 4 7 2 4 1014.0 1014.0 0.0
21/12:30am 14.6 12.6 13.8 95 0.4 NNE 17 30 9 16 1014.4 1014.4 0.0
21/12:00am 14.2 12.4 13.4 95 0.4 NE 15 20 8 11 1014.7 1014.7 0.0
 
Date/Time
EST
Temp
°C
App
Temp
°C
Dew
Point
°C
Rel
Hum
%
Delta-T
°C
Wind Press
QNH
hPa
Press
MSL
hPa
Rain since
9am
mm
Dir  Spd
km/h
Gust
km/h
Spd
kts
Gust
kts
20/11:30pm 14.4 12.7 13.6 95 0.4 NNE 15 20 8 11 1015.3 1015.3 0.0
20/11:00pm 14.9 11.6 14.1 95 0.5 NE 24 41 13 22 1015.7 1015.7 0.0
20/10:30pm 14.3 11.7 13.7 96 0.3 NNE 20 30 11 16 1015.7 1015.7 0.0
20/10:00pm 14.1 11.5 13.3 95 0.4 NNE 19 22 10 12 1016.3 1016.3 0.0
20/09:30pm 14.2 11.7 13.4 95 0.4 NE 19 24 10 13 1016.8 1016.8 0.0
20/09:00pm 13.7 11.8 12.9 95 0.4 NE 15 19 8 10 1017.1 1017.1 0.0
20/08:30pm 14.0 11.8 13.2 95 0.4 NE 17 20 9 11 1017.3 1017.3 0.0
20/08:00pm 13.7 12.5 12.8 94 0.5 NE 11 19 6 10 1017.2 1017.2 0.0
20/07:30pm 14.0 10.8 13.1 94 0.5 NE 22 26 12 14 1017.0 1017.0 0.0
20/07:00pm 13.9 11.0 12.8 93 0.6 NE 20 24 11 13 1017.1 1017.1 0.0
20/06:30pm 13.9 10.9 12.6 92 0.7 NE 20 24 11 13 1017.0 1017.0 0.0
20/06:00pm 14.0 11.1 12.4 90 0.9 NNE 19 20 10 11 1017.2 1017.2 0.0
20/05:30pm 14.2 11.3 12.4 89 1.0 NNE 19 24 10 13 1017.2 1017.2 0.0
20/05:00pm 14.5 12.1 12.5 88 1.1 NNE 17 22 9 12 1017.3 1017.3 0.0
20/04:30pm 14.7 11.7 12.6 87 1.1 NE 20 24 11 13 1017.2 1017.2 0.0
20/04:00pm 15.5 12.2 12.8 84 1.5 NE 22 28 12 15 1017.3 1017.3 0.0
20/03:30pm 15.6 11.5 12.7 83 1.6 NE 26 30 14 16 1017.2 1017.2 0.0

Other formats

Comma delimited format used in spreadsheet applications
http://www.bom.gov.au/fwo/IDT60801/IDT60801.95985.axf

JavaScript Object Notation format (JSON) in row-major order
http://www.bom.gov.au/fwo/IDT60801/IDT60801.95985.json

Data quality

Most of these data are generated automatically and are frequently updated. Quality checks on data are not normally performed. It is possible for incorrect values to appear. Refer to information at About Latest Weather Observations and please check the disclaimer before using these data.